Time;durP1;ratioP1;P1;durP2;ratioP2;P2;SDS_P1;SDS_P2;PMS_P1;PMS_P2;Temp;Humidity;BMP_temperature;BMP_pressure;BME280_temperature;BME280_humidity;BME280_pressure;Samples;Min_cycle;Max_cycle;Signal;HPM_P1;HPM_P2
2022/11/26 06:01:47;;;;;;;22.77;8.68;;;4.90;99.90;;;;;;5953832;23;20019;31
2022/11/26 06:04:13;;;;;;;21.08;7.00;;;4.90;99.90;;;;;;4925931;29;20408;-74
2022/11/26 06:06:51;;;;;;;25.58;8.85;;;4.90;99.90;;;;;;4926548;29;20032;-76
2022/11/26 06:09:20;;;;;;;;;;;4.90;99.90;;;;;;4928302;29;20024;-76
2022/11/26 06:19:53;;;;;;;14.48;7.03;;;4.70;99.90;;;;;;4909609;29;20046;-75
2022/11/26 06:23:25;;;;;;;15.70;6.97;;;4.50;99.90;;;;;;4925762;29;20344;-76
2022/11/26 06:36:56;;;;;;;16.42;8.30;;;4.30;99.90;;;;;;4887929;29;20024;-74
2022/11/26 06:47:21;;;;;;;17.52;7.53;;;4.20;99.90;;;;;;4832759;29;20417;-75
2022/11/26 07:14:54;;;;;;;21.23;9.05;;;4.00;99.90;;;;;;4672940;30;20072;-74
2022/11/26 07:29:47;;;;;;;22.23;11.00;;;4.20;99.90;;;;;;4656552;30;20054;-73
2022/11/26 07:32:42;;;;;;;;;;;;;;;;;;;;;
2022/11/26 07:35:23;;;;;;;21.85;9.98;;;4.60;99.90;;;;;;4684564;30;20093;-74
2022/11/26 07:38:20;;;;;;;23.40;10.25;;;4.80;99.90;;;;;;4706947;30;20038;-74
2022/11/26 07:44:10;;;;;;;17.75;10.70;;;5.20;99.90;;;;;;4724901;30;20045;-75
2022/11/26 07:46:35;;;;;;;20.95;11.75;;;5.30;99.90;;;;;;4746938;30;20107;-74
2022/11/26 07:49:21;;;;;;;17.63;11.57;;;5.50;99.90;;;;;;4791223;30;20057;-76
2022/11/26 07:51:47;;;;;;;21.30;12.13;;;5.60;99.90;;;;;;4818219;29;20043;-74
2022/11/26 07:54:45;;;;;;;21.13;8.30;;;5.80;99.90;;;;;;4850367;29;20059;-75
2022/11/26 07:57:24;;;;;;;16.10;7.70;;;5.90;99.90;;;;;;4907584;29;20044;-74
2022/11/26 07:59:52;;;;;;;15.18;7.25;;;6.00;99.90;;;;;;4939646;29;20059;-75
2022/11/26 08:02:37;;;;;;;18.08;8.15;;;6.10;99.90;;;;;;4925797;29;20035;-74
2022/11/26 08:05:05;;;;;;;16.95;7.70;;;6.20;99.90;;;;;;4925731;29;20051;-74
2022/11/26 08:07:35;;;;;;;14.68;7.45;;;6.30;99.90;;;;;;4926718;29;20071;-73
2022/11/26 08:10:07;;;;;;;14.95;7.18;;;6.40;99.90;;;;;;4920110;29;20047;-73
2022/11/26 08:12:33;;;;;;;13.13;7.10;;;6.50;99.90;;;;;;4924070;29;20040;-73
2022/11/26 08:14:59;;;;;;;11.30;6.75;;;6.50;99.90;;;;;;4925849;29;20032;-75
2022/11/26 08:17:24;;;;;;;15.10;6.78;;;6.60;99.90;;;;;;4926289;29;20245;-75
2022/11/26 08:19:50;;;;;;;14.85;6.97;;;6.70;99.90;;;;;;4925169;29;20134;-76
2022/11/26 08:22:16;;;;;;;12.93;6.20;;;6.70;99.90;;;;;;4908969;29;20028;-76
2022/11/26 08:24:42;;;;;;;11.45;5.38;;;6.80;99.90;;;;;;4925508;29;20036;-78
2022/11/26 08:27:07;;;;;;;12.82;5.85;;;6.90;99.90;;;;;;4926538;29;20141;-76
2022/11/26 08:29:38;;;;;;;10.52;5.90;;;7.00;99.90;;;;;;4924790;29;20107;-76
2022/11/26 08:32:08;;;;;;;10.32;5.40;;;7.10;99.90;;;;;;4909298;29;20234;-77
2022/11/26 08:34:37;;;;;;;13.20;5.60;;;7.10;99.90;;;;;;4924683;29;20035;-77
2022/11/26 08:37:21;;;;;;;;;;;7.20;99.90;;;;;;4940877;29;20329;-77
2022/11/26 08:40:05;;;;;;;10.85;5.30;;;7.20;99.90;;;;;;4925825;29;19974;-76
2022/11/26 08:42:50;;;;;;;9.88;5.10;;;7.20;99.90;;;;;;4913122;29;20040;-74
2022/11/26 08:45:19;;;;;;;11.02;5.10;;;7.30;99.90;;;;;;4924723;29;20035;-75
2022/11/26 08:47:45;;;;;;;9.45;4.55;;;7.40;99.90;;;;;;4925259;29;20389;-75
2022/11/26 08:50:23;;;;;;;10.88;4.32;;;7.50;99.90;;;;;;4925520;29;20032;-75
2022/11/26 08:55:45;;;;;;;11.95;5.03;;;7.60;99.90;;;;;;4925247;29;19977;-74
2022/11/26 08:58:11;;;;;;;10.73;5.50;;;7.60;99.90;;;;;;4926045;29;20036;-75
2022/11/26 09:00:37;;;;;;;12.57;5.63;;;7.60;99.90;;;;;;4924176;29;20028;-74
2022/11/26 09:03:02;;;;;;;16.75;7.38;;;7.50;99.90;;;;;;4926014;29;20044;-75
2022/11/26 09:05:28;;;;;;;17.80;6.90;;;7.40;99.90;;;;;;4925827;29;20044;-76
2022/11/26 09:07:57;;;;;;;16.27;7.35;;;7.20;99.90;;;;;;4924865;29;20102;-75
2022/11/26 09:10:45;;;;;;;21.50;8.30;;;7.20;99.90;;;;;;4928453;29;20028;-76
2022/11/26 09:13:14;;;;;;;23.08;7.65;;;7.10;99.90;;;;;;4927354;29;20109;-75
2022/11/26 09:15:40;;;;;;;19.40;8.48;;;7.00;99.90;;;;;;4927561;29;20043;-75
2022/11/26 09:18:06;;;;;;;20.67;7.55;;;7.00;99.90;;;;;;4928949;29;20040;-74
2022/11/26 09:20:31;;;;;;;20.67;8.38;;;7.00;99.90;;;;;;4928745;29;20095;-74
2022/11/26 09:22:57;;;;;;;15.00;7.55;;;7.00;99.90;;;;;;4926933;29;20108;-79
2022/11/26 09:25:23;;;;;;;12.57;6.75;;;7.00;99.90;;;;;;4927385;29;20266;-76
2022/11/26 09:27:49;;;;;;;16.08;7.38;;;7.10;99.90;;;;;;4928222;29;20031;-76
2022/11/26 09:30:15;;;;;;;15.63;7.32;;;7.20;99.90;;;;;;4927916;29;20063;-75
2022/11/26 09:32:41;;;;;;;12.93;7.13;;;7.30;99.90;;;;;;4927675;29;20279;-75
2022/11/26 09:35:07;;;;;;;14.90;7.13;;;7.50;99.90;;;;;;4913709;29;20107;-75
2022/11/26 09:37:33;;;;;;;14.55;6.93;;;7.50;99.90;;;;;;4913125;29;20024;-77
2022/11/26 09:39:59;;;;;;;18.45;6.57;;;7.50;99.90;;;;;;4911393;29;20028;-75
2022/11/26 09:42:53;;;;;;;10.93;6.28;;;7.60;99.90;;;;;;4929017;29;20078;-77
2022/11/26 09:45:46;;;;;;;12.68;6.32;;;7.70;99.90;;;;;;4928806;29;20040;-75
2022/11/26 09:48:16;;;;;;;12.65;6.32;;;7.80;99.90;;;;;;4928417;29;20032;-72
2022/11/26 09:50:45;;;;;;;13.07;6.10;;;7.90;99.90;;;;;;4924976;29;20028;-75
2022/11/26 09:53:14;;;;;;;;;;;8.00;99.90;;;;;;4910379;29;20040;-76
2022/11/26 09:55:43;;;;;;;17.92;6.00;;;8.00;99.90;;;;;;4925954;29;19918;-75
2022/11/26 09:58:27;;;;;;;12.88;5.13;;;8.10;99.90;;;;;;4910047;29;20250;-75
2022/11/26 10:00:58;;;;;;;12.02;6.50;;;8.20;99.90;;;;;;4926212;29;20033;-76
2022/11/26 10:03:37;;;;;;;12.27;6.20;;;8.30;99.90;;;;;;4926168;29;20059;-76
2022/11/26 10:06:28;;;;;;;12.20;6.20;;;8.40;99.90;;;;;;4926874;29;20404;-76
2022/11/26 10:09:12;;;;;;;13.73;5.95;;;8.50;99.90;;;;;;4899712;29;20036;-75
2022/11/26 10:11:56;;;;;;;13.13;6.28;;;8.40;99.90;;;;;;4926161;29;20380;-73
2022/11/26 10:14:45;;;;;;;12.23;5.82;;;8.40;99.90;;;;;;4926703;29;20059;-74
2022/11/26 10:17:35;;;;;;;15.70;6.88;;;8.40;99.90;;;;;;4925060;29;20043;-74
2022/11/26 10:20:26;;;;;;;14.13;6.60;;;8.50;99.90;;;;;;4926166;29;20055;-74
2022/11/26 10:23:02;;;;;;;12.63;5.72;;;8.60;99.90;;;;;;4926091;29;20044;-76
2022/11/26 10:25:33;;;;;;;12.50;5.97;;;8.70;99.90;;;;;;4904291;29;20314;-77
2022/11/26 10:28:00;;;;;;;12.73;5.82;;;8.80;99.90;;;;;;4909049;29;20233;-76
2022/11/26 10:30:28;;;;;;;11.93;6.20;;;8.90;99.90;;;;;;4909671;29;20047;-74
2022/11/26 10:33:01;;;;;;;10.38;5.85;;;8.90;99.90;;;;;;4926274;29;20329;-76
2022/11/26 10:35:52;;;;;;;10.80;6.00;;;9.00;99.90;;;;;;4926405;29;20035;-77
2022/11/26 10:38:19;;;;;;;13.70;6.05;;;9.20;99.90;;;;;;4910363;29;20031;-75
2022/11/26 10:40:44;;;;;;;11.02;5.47;;;9.30;99.90;;;;;;4926401;29;20103;-72
2022/11/26 10:43:18;;;;;;;10.50;5.47;;;9.40;99.90;;;;;;4926196;29;20032;-75
2022/11/26 10:46:06;;;;;;;9.60;5.18;;;9.60;99.90;;;;;;4926969;29;20032;-75
2022/11/26 10:48:43;;;;;;;13.02;6.22;;;9.80;99.90;;;;;;4926602;29;20047;-78
2022/11/26 10:51:27;;;;;;;14.85;6.25;;;9.90;99.90;;;;;;4875265;29;20049;-78
2022/11/26 10:54:04;;;;;;;11.57;4.90;;;10.10;99.90;;;;;;4876548;29;20028;-75
2022/11/26 10:56:41;;;;;;;11.10;4.07;;;10.80;99.90;;;;;;4919948;29;20028;-75
2022/11/26 10:59:35;;;;;;;10.93;4.85;;;11.00;99.90;;;;;;4923749;29;20330;-75
2022/11/26 11:02:31;;;;;;;11.32;4.88;;;11.10;99.90;;;;;;4908178;29;20319;-73
2022/11/26 11:05:01;;;;;;;10.88;4.07;;;11.10;99.90;;;;;;4910590;29;20385;-75
2022/11/26 11:07:54;;;;;;;9.13;4.47;;;11.00;99.90;;;;;;4890140;29;20060;-75
2022/11/26 11:10:25;;;;;;;8.68;4.20;;;11.00;99.90;;;;;;4906572;29;20052;-75
2022/11/26 11:13:01;;;;;;;9.98;3.80;;;11.20;99.90;;;;;;4906222;29;20047;-75
2022/11/26 11:15:30;;;;;;;9.02;4.28;;;11.30;99.90;;;;;;4906551;29;20059;-76
2022/11/26 11:18:29;;;;;;;13.98;5.03;;;11.30;99.90;;;;;;4889748;29;20037;-73
2022/11/26 11:20:58;;;;;;;9.90;4.30;;;11.30;99.90;;;;;;4889992;29;20222;-75
2022/11/26 11:23:30;;;;;;;9.07;4.40;;;11.30;99.90;;;;;;4890259;29;20059;-77
2022/11/26 11:26:02;;;;;;;10.60;3.88;;;11.20;99.90;;;;;;4906186;29;20370;-75
2022/11/26 11:31:54;;;;;;;11.80;4.25;;;11.20;99.90;;;;;;4905434;29;20039;-76
2022/11/26 11:34:43;;;;;;;12.25;4.85;;;11.10;99.90;;;;;;4904937;29;20109;-76
2022/11/26 11:37:22;;;;;;;10.77;4.38;;;11.00;99.90;;;;;;4885149;29;20051;-79
2022/11/26 11:40:15;;;;;;;10.35;5.35;;;10.90;99.90;;;;;;4889313;29;20036;-78
2022/11/26 11:42:51;;;;;;;15.68;6.72;;;10.70;99.90;;;;;;4906040;29;20064;-76
2022/11/26 11:45:41;;;;;;;15.93;6.38;;;10.40;99.90;;;;;;4906939;29;20036;-75
2022/11/26 11:48:45;;;;;;;13.57;6.25;;;10.20;99.90;;;;;;4898761;29;20040;-77
2022/11/26 11:52:05;;;;;;;10.00;4.90;;;10.10;99.90;;;;;;4889384;29;20263;-76
2022/11/26 11:55:02;;;;;;;10.32;5.15;;;10.10;99.90;;;;;;4885568;29;20143;-76
2022/11/26 11:57:37;;;;;;;12.30;6.00;;;10.10;99.90;;;;;;4867188;29;20350;-75
2022/11/26 12:00:55;;;;;;;13.70;5.13;;;10.10;99.90;;;;;;4880268;29;20372;-77
2022/11/26 12:03:49;;;;;;;13.70;5.35;;;10.00;99.90;;;;;;4904587;29;20036;-76
2022/11/26 12:06:19;;;;;;;15.88;4.47;;;10.20;99.90;;;;;;4905943;29;20044;-76
2022/11/26 12:09:26;;;;;;;16.13;4.43;;;10.30;99.90;;;;;;4897397;29;20222;-76
2022/11/26 12:12:16;;;;;;;7.57;3.23;;;10.30;99.90;;;;;;4863774;29;20222;-76
2022/11/26 12:15:09;;;;;;;9.88;4.63;;;10.30;99.90;;;;;;4878847;29;20318;-75
2022/11/26 12:18:11;;;;;;;16.60;6.03;;;10.50;99.90;;;;;;4889259;29;20278;-75
2022/11/26 12:20:54;;;;;;;10.90;4.30;;;10.50;99.90;;;;;;4905888;29;20073;-76
2022/11/26 12:23:35;;;;;;;13.63;5.22;;;10.50;99.90;;;;;;4905636;29;20096;-77
2022/11/26 12:26:21;;;;;;;11.38;4.70;;;10.40;99.90;;;;;;4905585;29;20040;-77
2022/11/26 12:29:00;;;;;;;13.45;3.80;;;10.40;99.90;;;;;;4905329;29;20048;-75
2022/11/26 12:31:54;;;;;;;9.15;3.88;;;10.80;99.90;;;;;;4905225;29;20056;-75
2022/11/26 12:34:34;;;;;;;9.13;3.35;;;12.60;99.90;;;;;;4905851;29;20047;-76
2022/11/26 12:37:03;;;;;;;10.38;3.90;;;13.60;99.90;;;;;;4889132;29;20111;-76
2022/11/26 12:39:46;;;;;;;10.00;3.67;;;13.50;99.90;;;;;;4889512;29;20314;-75
2022/11/26 12:42:32;;;;;;;11.85;3.83;;;13.10;99.90;;;;;;4906141;29;20047;-75
2022/11/26 12:45:15;;;;;;;11.43;3.85;;;13.20;99.90;;;;;;4877286;29;20338;-74
2022/11/26 12:47:49;;;;;;;8.45;3.60;;;13.60;99.90;;;;;;4909187;29;20318;-77
2022/11/26 12:50:38;;;;;;;8.70;3.40;;;13.90;99.90;;;;;;4909727;29;20055;-76
2022/11/26 12:53:03;;;;;;;7.82;2.38;;;13.50;99.90;;;;;;4910375;29;20267;-76
2022/11/26 12:56:06;;;;;;;8.90;2.47;;;13.50;99.90;;;;;;4893701;29;20033;-77
2022/11/26 12:58:51;;;;;;;18.33;3.28;;;14.20;99.90;;;;;;4879999;29;20044;-77
2022/11/26 13:01:17;;;;;;;9.60;2.33;;;14.20;99.90;;;;;;4909982;29;20345;-77
2022/11/26 13:03:43;;;;;;;7.13;2.88;;;13.50;99.90;;;;;;4909604;29;20057;-77
2022/11/26 13:06:22;;;;;;;10.27;2.63;;;13.20;99.90;;;;;;4910425;29;20043;-76
2022/11/26 13:09:12;;;;;;;9.00;3.03;;;13.10;99.90;;;;;;4910848;29;20043;-76
2022/11/26 13:11:48;;;;;;;13.73;3.03;;;12.60;99.90;;;;;;4910173;29;20044;-76
2022/11/26 13:14:38;;;;;;;9.57;3.88;;;12.20;99.90;;;;;;4911517;29;20032;-75
2022/11/26 13:17:14;;;;;;;8.32;3.30;;;12.30;99.90;;;;;;4909443;29;20036;-77
2022/11/26 13:19:48;;;;;;;7.28;3.20;;;12.40;99.90;;;;;;4891286;29;20250;-75
2022/11/26 13:22:51;;;;;;;12.32;3.58;;;12.80;99.90;;;;;;4890341;29;20037;-76
2022/11/26 13:26:01;;;;;;;9.85;3.25;;;13.40;99.90;;;;;;4890116;29;20021;-76
2022/11/26 13:29:04;;;;;;;10.23;3.67;;;14.40;99.90;;;;;;4888185;29;20040;-77
2022/11/26 13:32:14;;;;;;;10.35;3.55;;;14.70;99.70;;;;;;4888103;29;20081;-78
2022/11/26 13:35:15;;;;;;;8.13;3.10;;;14.50;99.50;;;;;;4857388;29;20036;-76
2022/11/26 13:38:09;;;;;;;11.98;3.95;;;14.10;99.70;;;;;;4842039;29;20045;-75
2022/11/26 13:40:53;;;;;;;10.07;3.30;;;14.00;99.90;;;;;;4889625;29;20068;-75
2022/11/26 13:43:35;;;;;;;9.63;3.20;;;14.00;99.90;;;;;;4889732;29;20060;-75
2022/11/26 13:46:30;;;;;;;10.13;3.47;;;14.00;99.60;;;;;;4889063;29;20044;-75
2022/11/26 13:49:04;;;;;;;9.15;3.15;;;13.60;99.90;;;;;;4888656;29;20264;-74
2022/11/26 13:51:53;;;;;;;10.23;3.40;;;13.80;99.90;;;;;;4888200;29;20033;-75
2022/11/26 13:54:27;;;;;;;11.13;3.55;;;13.90;99.90;;;;;;4887782;29;20052;-75
2022/11/26 13:57:09;;;;;;;10.32;3.38;;;13.90;99.90;;;;;;4903895;29;20052;-75
2022/11/26 13:59:43;;;;;;;8.70;3.38;;;14.00;99.90;;;;;;4907892;29;20039;-74
2022/11/26 14:02:35;;;;;;;8.55;3.33;;;14.10;99.70;;;;;;4907789;29;20029;-75
2022/11/26 14:05:20;;;;;;;9.38;3.83;;;13.90;99.90;;;;;;4907622;29;20077;-77
2022/11/26 14:07:46;;;;;;;12.93;3.63;;;13.70;99.90;;;;;;4907453;29;20319;-75
2022/11/26 14:10:34;;;;;;;8.35;3.72;;;13.60;99.90;;;;;;4908103;29;20341;-74
2022/11/26 14:13:02;;;;;;;10.48;3.45;;;13.60;99.90;;;;;;4904977;29;20123;-80
2022/11/26 14:15:59;;;;;;;9.23;3.53;;;13.50;99.90;;;;;;4894743;29;20037;-75
2022/11/26 14:18:46;;;;;;;7.88;3.33;;;13.80;99.90;;;;;;4883195;29;20052;-76
2022/11/26 14:21:13;;;;;;;11.80;3.33;;;13.80;99.70;;;;;;4907355;29;20101;-74
2022/11/26 14:23:45;;;;;;;10.13;3.75;;;13.90;99.30;;;;;;4907660;29;20024;-75
2022/11/26 14:26:28;;;;;;;7.28;3.28;;;14.10;98.70;;;;;;4907256;29;20303;-75
2022/11/26 14:29:07;;;;;;;11.70;3.65;;;14.20;99.00;;;;;;4907157;29;20615;-75
2022/11/26 14:31:39;;;;;;;9.85;3.80;;;14.10;98.90;;;;;;4907149;29;20032;-76
2022/11/26 14:34:17;;;;;;;14.88;4.72;;;14.30;98.70;;;;;;4906460;29;20092;-76
2022/11/26 14:36:58;;;;;;;16.77;4.90;;;14.30;98.90;;;;;;4907559;29;20029;-75
2022/11/26 14:39:25;;;;;;;12.73;4.50;;;14.40;98.70;;;;;;4907316;29;20048;-76
2022/11/26 14:41:53;;;;;;;10.27;4.82;;;14.40;98.50;;;;;;4906743;29;20108;-76
2022/11/26 14:44:20;;;;;;;8.52;3.42;;;14.60;98.40;;;;;;4907306;29;20028;-75
2022/11/26 14:46:49;;;;;;;9.93;4.00;;;14.50;98.40;;;;;;4909077;29;20056;-77
2022/11/26 14:49:35;;;;;;;10.40;3.90;;;14.10;98.80;;;;;;4907394;29;20040;-76
2022/11/26 14:52:05;;;;;;;10.25;3.63;;;13.60;99.40;;;;;;4907008;29;20048;-75
2022/11/26 14:54:38;;;;;;;9.25;3.17;;;13.10;99.90;;;;;;4907878;29;20068;-76
2022/11/26 14:57:11;;;;;;;9.63;3.90;;;12.50;99.90;;;;;;4903186;29;20037;-75
2022/11/26 14:59:52;;;;;;;10.68;3.60;;;12.00;99.90;;;;;;4903000;29;20043;-79
2022/11/26 15:02:23;;;;;;;11.13;4.18;;;11.60;99.90;;;;;;4891105;29;20032;-76
2022/11/26 15:05:01;;;;;;;10.50;3.60;;;11.30;99.90;;;;;;4908872;29;20460;-75
2022/11/26 15:07:30;;;;;;;11.07;3.78;;;10.90;99.90;;;;;;4890372;29;20269;-76
2022/11/26 15:10:20;;;;;;;13.27;4.25;;;10.60;99.90;;;;;;4890758;29;20048;-77
2022/11/26 15:12:49;;;;;;;10.30;3.63;;;10.40;99.90;;;;;;4880207;29;20051;-76
2022/11/26 15:15:22;;;;;;;9.10;3.97;;;10.20;99.90;;;;;;4905966;29;20033;-75
2022/11/26 15:18:04;;;;;;;10.05;4.05;;;10.00;99.90;;;;;;4905749;29;20032;-76
2022/11/26 15:20:31;;;;;;;11.95;4.38;;;9.80;99.90;;;;;;4905411;29;20081;-75
2022/11/26 15:23:00;;;;;;;13.20;4.13;;;9.70;99.90;;;;;;4891067;29;20337;-74
2022/11/26 15:25:28;;;;;;;10.32;4.30;;;9.50;99.90;;;;;;4908477;29;20052;-75
2022/11/26 15:28:18;;;;;;;14.75;5.32;;;9.30;99.90;;;;;;4906039;29;20040;-76
2022/11/26 15:30:57;;;;;;;19.63;11.10;;;9.10;99.90;;;;;;4907846;29;20199;-75
2022/11/26 15:33:26;;;;;;;19.15;10.32;;;8.90;99.90;;;;;;4908469;29;20044;-75
2022/11/26 15:35:56;;;;;;;;;;;8.70;99.90;;;;;;4905435;29;20054;-76
2022/11/26 15:38:24;;;;;;;39.40;24.75;;;8.50;99.90;;;;;;4902550;29;19964;-76
2022/11/26 15:41:17;;;;;;;30.25;17.17;;;8.40;99.90;;;;;;4905108;29;20036;-77
2022/11/26 15:43:49;;;;;;;13.57;6.85;;;8.20;99.90;;;;;;4872712;29;20043;-75
2022/11/26 15:46:30;;;;;;;10.75;6.05;;;8.00;99.90;;;;;;4905350;29;20032;-76
2022/11/26 15:49:08;;;;;;;15.38;5.47;;;7.90;99.90;;;;;;4905810;29;20107;-77
2022/11/26 15:51:41;;;;;;;15.85;5.43;;;7.80;99.90;;;;;;4905275;29;20056;-76
2022/11/26 15:54:23;;;;;;;18.20;6.15;;;7.70;99.90;;;;;;4889064;29;20069;-77
2022/11/26 15:56:58;;;;;;;14.95;6.72;;;7.60;99.90;;;;;;4888828;29;20310;-76
2022/11/26 15:59:27;;;;;;;34.08;20.42;;;7.50;99.90;;;;;;4900476;29;20051;-75
2022/11/26 16:01:53;;;;;;;17.45;8.20;;;7.40;99.90;;;;;;4905455;29;20035;-75
2022/11/26 16:04:43;;;;;;;19.35;10.80;;;7.40;99.90;;;;;;4905943;29;20059;-75
2022/11/26 16:07:22;;;;;;;20.70;10.43;;;7.30;99.90;;;;;;4894873;29;20186;-75
2022/11/26 16:09:49;;;;;;;22.13;8.80;;;7.10;99.90;;;;;;4888866;29;20055;-76
2022/11/26 16:12:27;;;;;;;20.23;9.20;;;7.10;99.90;;;;;;4906164;29;20044;-77
2022/11/26 16:15:23;;;;;;;31.55;14.32;;;7.00;99.90;;;;;;4906758;29;20024;-76
2022/11/26 16:17:50;;;;;;;21.02;10.18;;;6.90;99.90;;;;;;4906409;29;20044;-76
2022/11/26 16:20:27;;;;;;;25.63;12.93;;;6.90;99.90;;;;;;4895708;29;20059;-78
2022/11/26 16:22:56;;;;;;;22.20;10.00;;;6.80;99.90;;;;;;4911947;29;20071;-76
2022/11/26 16:25:32;;;;;;;34.97;18.10;;;6.80;99.90;;;;;;4911452;29;20040;-75
2022/11/26 16:28:00;;;;;;;27.65;14.50;;;6.70;99.90;;;;;;4912471;29;20032;-76
2022/11/26 16:30:26;;;;;;;28.42;12.57;;;6.60;99.90;;;;;;4912437;29;20117;-74
2022/11/26 16:32:52;;;;;;;27.33;12.60;;;6.60;99.90;;;;;;4911107;29;20275;-76
2022/11/26 16:35:17;;;;;;;37.85;16.83;;;6.50;99.90;;;;;;4912522;29;20040;-77
2022/11/26 16:37:43;;;;;;;39.47;21.13;;;6.50;99.90;;;;;;4912290;29;20329;-75
2022/11/26 16:40:15;;;;;;;63.85;32.20;;;6.40;99.90;;;;;;4879514;29;20033;-76
2022/11/26 16:42:41;;;;;;;68.13;34.53;;;6.30;99.90;;;;;;4912453;29;20411;-76
2022/11/26 16:45:09;;;;;;;39.33;21.80;;;6.30;99.90;;;;;;4895546;29;20032;-76
2022/11/26 16:47:38;;;;;;;;;;;6.40;99.90;;;;;;4913029;29;20096;-75
2022/11/26 16:50:06;;;;;;;35.17;17.45;;;6.30;99.90;;;;;;4912946;29;19963;-75
2022/11/26 16:52:37;;;;;;;31.65;13.85;;;6.30;99.90;;;;;;4913065;29;20037;-77
2022/11/26 16:55:04;;;;;;;31.13;14.65;;;6.30;99.90;;;;;;4896181;29;20056;-75
2022/11/26 16:57:29;;;;;;;30.95;16.38;;;6.30;99.90;;;;;;4913062;29;20052;-77
2022/11/26 17:00:03;;;;;;;34.65;16.08;;;6.30;99.90;;;;;;4895939;29;20286;-76
2022/11/26 17:02:31;;;;;;;28.90;14.90;;;6.30;99.90;;;;;;4912297;29;20054;-75
2022/11/26 17:04:57;;;;;;;31.77;15.33;;;6.30;99.90;;;;;;4911700;29;20361;-74
2022/11/26 17:07:28;;;;;;;34.25;17.35;;;6.20;99.90;;;;;;4912593;29;20036;-75
2022/11/26 17:09:57;;;;;;;29.48;15.60;;;6.20;99.90;;;;;;4911159;29;20101;-76
2022/11/26 17:12:23;;;;;;;41.17;20.30;;;6.00;99.90;;;;;;4912998;29;20052;-76
2022/11/26 17:14:52;;;;;;;32.42;16.20;;;5.90;99.90;;;;;;4895063;29;20340;-75
2022/11/26 17:17:22;;;;;;;32.15;15.77;;;5.90;99.90;;;;;;4895670;29;20033;-76
2022/11/26 17:19:48;;;;;;;30.30;15.18;;;6.00;99.90;;;;;;4911883;29;20067;-75
2022/11/26 17:22:15;;;;;;;31.67;15.65;;;5.90;99.90;;;;;;4912336;29;20056;-73
2022/11/26 17:24:41;;;;;;;33.90;15.48;;;5.90;99.90;;;;;;4911787;29;20134;-75
2022/11/26 17:27:15;;;;;;;29.63;15.60;;;5.80;99.90;;;;;;4894750;29;20095;-75
2022/11/26 17:29:46;;;;;;;30.73;16.05;;;5.80;99.90;;;;;;4910014;29;20180;-74
2022/11/26 17:32:15;;;;;;;28.65;15.68;;;5.70;99.90;;;;;;4908824;29;20246;-76
2022/11/26 17:34:42;;;;;;;32.67;16.67;;;5.70;99.90;;;;;;4908981;29;20141;-75
2022/11/26 17:37:23;;;;;;;33.38;16.75;;;5.60;99.90;;;;;;4907163;29;20263;-76
2022/11/26 17:39:49;;;;;;;29.77;15.80;;;5.60;99.90;;;;;;4908715;29;20036;-76
2022/11/26 17:42:18;;;;;;;31.52;17.05;;;5.50;99.90;;;;;;4908268;29;20039;-75
2022/11/26 17:44:48;;;;;;;30.90;16.48;;;5.40;99.90;;;;;;4908405;29;20044;-74
2022/11/26 17:47:20;;;;;;;32.95;17.25;;;5.30;99.90;;;;;;4906727;29;20021;-75
2022/11/26 17:49:46;;;;;;;34.17;17.25;;;5.20;99.90;;;;;;4907446;29;20080;-74
2022/11/26 17:52:13;;;;;;;34.50;18.75;;;5.20;99.90;;;;;;4908110;29;20032;-76
2022/11/26 17:54:40;;;;;;;37.17;19.73;;;5.20;99.90;;;;;;4892076;29;20095;-76
2022/11/26 17:57:06;;;;;;;66.82;30.90;;;5.10;99.90;;;;;;4893611;29;20028;-74
2022/11/26 17:59:32;;;;;;;44.63;24.38;;;5.00;99.90;;;;;;4894895;29;20032;-75
2022/11/26 18:01:58;;;;;;;39.17;19.50;;;5.10;99.90;;;;;;4911917;29;20303;-75
2022/11/26 18:04:24;;;;;;;39.00;20.20;;;5.10;99.90;;;;;;4918298;29;20037;-79
2022/11/26 18:07:18;;;;;;;36.25;19.20;;;5.10;99.90;;;;;;4916129;29;20382;-78
2022/11/26 18:09:46;;;;;;;36.20;19.27;;;5.10;99.90;;;;;;4857447;29;20046;-75
2022/11/26 18:12:21;;;;;;;36.78;20.95;;;5.00;99.90;;;;;;4853708;29;20052;-76
2022/11/26 18:14:47;;;;;;;41.92;20.98;;;5.00;99.90;;;;;;4851015;29;20251;-74
2022/11/26 18:17:13;;;;;;;37.85;21.92;;;5.10;99.90;;;;;;4850277;29;20101;-76
2022/11/26 18:19:44;;;;;;;37.38;20.58;;;5.10;99.90;;;;;;4835840;29;20098;-75
2022/11/26 18:22:19;;;;;;;37.53;19.30;;;5.10;99.90;;;;;;4849960;29;20042;-76
2022/11/26 18:24:58;;;;;;;38.10;19.50;;;5.10;99.90;;;;;;4850276;29;20081;-77
2022/11/26 18:27:29;;;;;;;44.85;23.25;;;5.00;99.90;;;;;;4853198;29;20041;-76
2022/11/26 18:29:55;;;;;;;;;;;5.00;99.90;;;;;;4850179;29;20098;-74
2022/11/26 18:32:23;;;;;;;43.40;23.30;;;4.90;99.90;;;;;;4835061;29;19916;-75
2022/11/26 18:34:49;;;;;;;38.90;21.80;;;4.90;99.90;;;;;;4840127;29;20042;-74
2022/11/26 18:37:16;;;;;;;40.40;21.10;;;4.90;99.90;;;;;;4816081;29;20110;-74
2022/11/26 18:39:42;;;;;;;37.92;20.85;;;4.80;99.90;;;;;;4816407;29;20060;-74
2022/11/26 18:42:13;;;;;;;37.88;20.83;;;4.80;99.90;;;;;;4831054;29;20046;-75
2022/11/26 18:44:39;;;;;;;37.75;20.88;;;4.80;99.90;;;;;;4833032;29;20363;-73
2022/11/26 18:47:05;;;;;;;39.58;22.33;;;4.70;99.90;;;;;;4881173;29;20070;-74
2022/11/26 18:49:31;;;;;;;35.90;22.15;;;4.60;99.90;;;;;;4907603;29;20033;-74
2022/11/26 18:51:57;;;;;;;38.38;21.75;;;4.50;99.90;;;;;;4907045;29;20052;-74
2022/11/26 18:54:23;;;;;;;39.20;22.20;;;4.50;99.90;;;;;;4890722;29;20032;-75
2022/11/26 18:56:49;;;;;;;40.53;22.30;;;4.50;99.90;;;;;;4890837;29;20028;-74
2022/11/26 18:59:15;;;;;;;44.75;21.52;;;4.50;99.90;;;;;;4906899;29;20039;-76
2022/11/26 19:01:42;;;;;;;52.38;29.27;;;4.40;99.90;;;;;;4906946;29;20044;-74
2022/11/26 19:04:10;;;;;;;53.63;27.88;;;4.40;99.90;;;;;;4894376;29;20389;-73
2022/11/26 19:06:37;;;;;;;46.75;22.90;;;4.40;99.90;;;;;;4922685;29;20032;-74
2022/11/26 19:09:09;;;;;;;48.55;24.35;;;4.40;99.90;;;;;;4905243;29;20040;-76
2022/11/26 19:11:36;;;;;;;48.35;24.85;;;4.40;99.90;;;;;;4916256;29;20321;-76
2022/11/26 19:14:03;;;;;;;42.95;23.15;;;4.50;99.90;;;;;;4924930;29;20087;-74
2022/11/26 19:16:29;;;;;;;48.38;24.58;;;4.50;99.90;;;;;;4909038;29;20032;-75
2022/11/26 19:18:55;;;;;;;49.03;24.65;;;4.40;99.90;;;;;;4925672;29;20090;-76
2022/11/26 19:21:27;;;;;;;53.17;25.33;;;4.50;99.90;;;;;;4906741;29;20032;-76
2022/11/26 19:23:55;;;;;;;54.65;28.73;;;4.50;99.90;;;;;;4905623;29;20204;-75
2022/11/26 19:26:21;;;;;;;;;;;4.50;99.90;;;;;;4924415;29;20032;-76
2022/11/26 19:28:47;;;;;;;47.55;24.73;;;4.40;99.90;;;;;;4925893;29;19913;-74
2022/11/26 19:31:16;;;;;;;46.10;24.13;;;4.40;99.90;;;;;;4925529;29;20500;-74
2022/11/26 19:33:45;;;;;;;47.72;22.42;;;4.30;99.90;;;;;;4925689;29;20047;-75
2022/11/26 19:36:14;;;;;;;47.25;22.88;;;4.30;99.90;;;;;;4924987;29;20051;-74
2022/11/26 19:38:41;;;;;;;48.40;23.63;;;4.30;99.90;;;;;;4925719;29;20051;-77
2022/11/26 19:41:06;;;;;;;44.67;23.52;;;4.30;99.90;;;;;;4924824;29;20349;-72
2022/11/26 19:43:35;;;;;;;50.35;24.08;;;4.30;99.90;;;;;;4925370;29;20032;-74
2022/11/26 19:46:12;;;;;;;43.53;22.40;;;4.30;99.90;;;;;;4903452;29;20091;-74
2022/11/26 19:48:40;;;;;;;47.90;24.23;;;4.30;99.90;;;;;;4908701;29;20250;-76
2022/11/26 19:51:07;;;;;;;45.88;21.83;;;4.20;99.90;;;;;;4925105;29;20203;-75
2022/11/26 19:53:37;;;;;;;40.55;22.50;;;4.30;99.90;;;;;;4924845;29;20079;-75
2022/11/26 19:56:18;;;;;;;40.17;21.90;;;4.20;99.90;;;;;;4907924;29;20282;-73
2022/11/26 19:58:45;;;;;;;38.70;21.48;;;4.10;99.90;;;;;;4924901;29;20048;-75
2022/11/26 20:01:14;;;;;;;37.03;19.92;;;4.00;99.90;;;;;;4907751;29;20044;-76
2022/11/26 20:03:40;;;;;;;51.90;29.48;;;3.90;99.90;;;;;;4921647;29;20108;-75
2022/11/26 20:06:13;;;;;;;41.95;23.73;;;3.90;99.90;;;;;;4889139;29;20029;-75
2022/11/26 20:08:39;;;;;;;44.83;23.35;;;3.80;99.90;;;;;;4899405;29;20274;-75
2022/11/26 20:11:07;;;;;;;44.33;23.02;;;3.90;99.90;;;;;;4898821;29;20020;-76
2022/11/26 20:13:35;;;;;;;39.42;20.92;;;3.80;99.90;;;;;;4906213;29;20043;-77
2022/11/26 20:16:09;;;;;;;44.13;22.25;;;3.80;99.90;;;;;;4905918;29;20075;-75
2022/11/26 20:18:37;;;;;;;43.83;23.25;;;3.80;99.90;;;;;;4890053;29;20040;-75
2022/11/26 20:21:10;;;;;;;43.28;23.90;;;3.70;99.90;;;;;;4889335;29;20047;-75
2022/11/26 20:23:36;;;;;;;49.60;24.88;;;3.60;99.90;;;;;;4889694;29;20141;-77
2022/11/26 20:26:03;;;;;;;45.58;25.33;;;3.60;99.90;;;;;;4905911;29;20045;-73
2022/11/26 20:28:29;;;;;;;46.55;24.88;;;3.60;99.90;;;;;;4905811;29;20032;-75
2022/11/26 20:30:55;;;;;;;50.97;25.52;;;3.60;99.90;;;;;;4904789;29;20041;-73
2022/11/26 20:33:21;;;;;;;49.95;24.63;;;3.70;99.90;;;;;;4904172;29;20199;-77
2022/11/26 20:35:47;;;;;;;44.80;23.92;;;3.70;99.90;;;;;;4906103;29;20211;-75
2022/11/26 20:38:15;;;;;;;44.42;24.05;;;3.70;99.90;;;;;;4905927;29;20028;-74
2022/11/26 20:40:42;;;;;;;46.13;24.42;;;3.80;99.90;;;;;;4906147;29;20036;-73